Time,TemperatureF,DewpointF,PressureIn,WindDirection,WindDirectionDegrees,WindSpeedMPH,WindSpeedGustMPH,Humidity,HourlyPrecipIn,Conditions,Clouds,dailyrainin,SoftwareType,DateUTC
2013-07-06 00:13:00,79.6,76.0,30.27,WSW,238,2.0,7.0,89,0.00,,,0.00,weatherlink.com 1.10,2013-07-06 04:13:00,
2013-07-06 00:28:00,78.9,76.0,30.27,SW,224,5.0,8.0,90,0.00,,,0.00,weatherlink.com 1.10,2013-07-06 04:28:00,
2013-07-06 00:43:00,78.9,76.0,30.27,SW,217,3.0,7.0,89,0.00,,,0.00,weatherlink.com 1.10,2013-07-06 04:43:00,
2013-07-06 00:59:00,79.2,76.0,30.26,WSW,240,5.0,7.0,90,0.00,,,0.00,weatherlink.com 1.10,2013-07-06 04:59:00,
2013-07-06 01:13:00,79.1,76.0,30.27,SW,231,4.0,7.0,89,0.00,,,0.00,weatherlink.com 1.10,2013-07-06 05:13:00,
2013-07-06 01:28:00,79.0,76.0,30.26,SSW,210,7.0,8.0,90,0.00,,,0.00,weatherlink.com 1.10,2013-07-06 05:28:00,
2013-07-06 01:43:00,78.8,76.0,30.25,SSW,205,6.0,7.0,90,0.00,,,0.00,weatherlink.com 1.10,2013-07-06 05:43:00,
2013-07-06 01:58:00,78.8,76.0,30.25,SSW,200,6.0,7.0,90,0.00,,,0.00,weatherlink.com 1.10,2013-07-06 05:58:00,
2013-07-06 02:13:00,78.9,76.0,30.24,SSW,195,6.0,8.0,90,0.00,,,0.00,weatherlink.com 1.10,2013-07-06 06:13:00,
2013-07-06 02:29:00,79.0,76.0,30.24,SSW,201,5.0,7.0,91,0.00,,,0.00,weatherlink.com 1.10,2013-07-06 06:29:00,
2013-07-06 02:43:00,78.9,76.0,30.24,South,187,4.0,7.0,91,0.00,,,0.00,weatherlink.com 1.10,2013-07-06 06:43:00,
2013-07-06 02:58:00,78.8,76.0,30.24,SSW,199,5.0,8.0,91,0.00,,,0.00,weatherlink.com 1.10,2013-07-06 06:58:00,
2013-07-06 03:13:00,78.6,76.0,30.24,SSW,195,6.0,7.0,91,0.00,,,0.00,weatherlink.com 1.10,2013-07-06 07:13:00,
2013-07-06 03:28:00,78.5,76.0,30.24,SSE,160,5.0,7.0,92,0.00,,,0.00,weatherlink.com 1.10,2013-07-06 07:28:00,
2013-07-06 03:44:00,78.3,76.0,30.24,South,173,4.0,6.0,92,0.00,,,0.00,weatherlink.com 1.10,2013-07-06 07:44:00,
2013-07-06 03:59:00,78.2,76.0,30.24,SSE,160,4.0,6.0,92,0.00,,,0.00,weatherlink.com 1.10,2013-07-06 07:59:00,
2013-07-06 04:14:00,78.3,76.0,30.23,SSW,198,6.0,6.0,92,0.00,,,0.00,weatherlink.com 1.10,2013-07-06 08:14:00,
2013-07-06 04:29:00,78.4,76.0,30.24,SSW,195,3.0,6.0,92,0.00,,,0.00,weatherlink.com 1.10,2013-07-06 08:29:00,
2013-07-06 04:44:00,78.3,76.0,30.23,SSW,197,3.0,5.0,92,0.00,,,0.00,weatherlink.com 1.10,2013-07-06 08:44:00,
2013-07-06 04:59:00,78.3,76.0,30.23,SSW,210,4.0,5.0,92,0.00,,,0.00,weatherlink.com 1.10,2013-07-06 08:59:00,
2013-07-06 05:14:00,78.0,76.0,30.24,South,172,2.0,5.0,92,0.00,,,0.00,weatherlink.com 1.10,2013-07-06 09:14:00,
2013-07-06 05:29:00,77.9,75.0,30.24,South,188,3.0,4.0,91,0.00,,,0.00,weatherlink.com 1.10,2013-07-06 09:29:00,
2013-07-06 05:44:00,77.9,76.0,30.24,SSW,207,1.0,4.0,93,0.00,,,0.00,weatherlink.com 1.10,2013-07-06 09:44:00,
2013-07-06 05:59:00,77.6,76.0,30.24,SSE,155,1.0,4.0,93,0.00,,,0.00,weatherlink.com 1.10,2013-07-06 09:59:00,
2013-07-06 06:14:00,76.2,74.0,30.25,NW,314,0.0,1.0,93,0.00,,,0.00,weatherlink.com 1.10,2013-07-06 10:14:00,
2013-07-06 06:29:00,77.2,76.0,30.25,SSW,200,3.0,4.0,95,0.00,,,0.00,weatherlink.com 1.10,2013-07-06 10:29:00,
2013-07-06 06:44:00,77.6,76.0,30.25,SSW,198,5.0,5.0,94,0.00,,,0.00,weatherlink.com 1.10,2013-07-06 10:44:00,
2013-07-06 06:59:00,77.9,76.0,30.26,SSW,211,5.0,5.0,93,0.00,,,0.00,weatherlink.com 1.10,2013-07-06 10:59:00,
2013-07-06 07:14:00,78.4,76.0,30.25,SSW,195,4.0,6.0,92,0.00,,,0.00,weatherlink.com 1.10,2013-07-06 11:14:00,
2013-07-06 07:29:00,78.4,76.0,30.26,SW,214,3.0,5.0,92,0.00,,,0.00,weatherlink.com 1.10,2013-07-06 11:29:00,
2013-07-06 07:44:00,78.9,76.0,30.26,SSW,200,3.0,5.0,91,0.00,,,0.00,weatherlink.com 1.10,2013-07-06 11:44:00,
2013-07-06 07:59:00,79.5,76.0,30.27,SW,215,2.0,5.0,90,0.00,,,0.00,weatherlink.com 1.10,2013-07-06 11:59:00,
2013-07-06 08:14:00,80.2,76.0,30.27,SSW,207,4.0,6.0,88,0.00,,,0.00,weatherlink.com 1.10,2013-07-06 12:14:00,
2013-07-06 08:29:00,80.5,76.0,30.27,SSW,198,3.0,5.0,87,0.00,,,0.00,weatherlink.com 1.10,2013-07-06 12:29:00,
2013-07-06 08:44:00,80.9,76.0,30.28,SSW,198,5.0,6.0,86,0.00,,,0.00,weatherlink.com 1.10,2013-07-06 12:44:00,
2013-07-06 08:59:00,81.3,77.0,30.27,SSW,198,4.0,6.0,85,0.00,,,0.00,weatherlink.com 1.10,2013-07-06 12:59:00,
2013-07-06 09:14:00,81.8,76.0,30.27,SSW,210,3.0,7.0,83,0.00,,,0.00,weatherlink.com 1.10,2013-07-06 13:14:00,
2013-07-06 09:29:00,82.3,76.0,30.27,SSW,197,4.0,5.0,81,0.00,,,0.00,weatherlink.com 1.10,2013-07-06 13:29:00,
2013-07-06 09:44:00,83.0,76.0,30.27,SSW,204,3.0,5.0,79,0.00,,,0.00,weatherlink.com 1.10,2013-07-06 13:44:00,
2013-07-06 09:59:00,83.4,76.0,30.26,SSW,199,3.0,5.0,79,0.00,,,0.00,weatherlink.com 1.10,2013-07-06 13:59:00,
2013-07-06 10:14:00,83.9,76.0,30.26,SSE,165,2.0,4.0,76,0.00,,,0.00,weatherlink.com 1.10,2013-07-06 14:14:00,
2013-07-06 10:29:00,84.3,76.0,30.27,South,186,2.0,5.0,75,0.00,,,0.00,weatherlink.com 1.10,2013-07-06 14:29:00,
2013-07-06 10:44:00,84.2,74.0,30.27,SSW,199,4.0,6.0,72,0.00,,,0.00,weatherlink.com 1.10,2013-07-06 14:44:00,
2013-07-06 11:00:00,84.5,74.0,30.27,SSW,195,4.0,6.0,71,0.00,,,0.00,weatherlink.com 1.10,2013-07-06 15:00:00,
2013-07-06 11:14:00,84.8,74.0,30.27,SSW,193,4.0,8.0,71,0.00,,,0.00,weatherlink.com 1.10,2013-07-06 15:14:00,
2013-07-06 11:30:00,84.8,74.0,30.27,SSW,195,4.0,8.0,70,0.00,,,0.00,weatherlink.com 1.10,2013-07-06 15:30:00,
2013-07-06 11:44:00,84.8,75.0,30.27,SSW,198,5.0,7.0,72,0.00,,,0.00,weatherlink.com 1.10,2013-07-06 15:44:00,
2013-07-06 12:14:00,85.2,75.0,30.27,SSW,194,7.0,9.0,71,0.00,,,0.00,weatherlink.com 1.10,2013-07-06 16:14:00,
2013-07-06 12:29:00,85.5,75.0,30.26,SSW,201,6.0,8.0,71,0.00,,,0.00,weatherlink.com 1.10,2013-07-06 16:29:00,
2013-07-06 12:59:00,85.3,75.0,30.25,SSW,198,7.0,9.0,71,0.00,,,0.00,weatherlink.com 1.10,2013-07-06 16:59:00,
2013-07-06 13:14:00,85.2,75.0,30.25,SSE,151,9.0,12.0,72,0.00,,,0.00,weatherlink.com 1.10,2013-07-06 17:14:00,
2013-07-06 13:29:00,85.2,76.0,30.25,SSW,195,6.0,10.0,73,0.00,,,0.00,weatherlink.com 1.10,2013-07-06 17:29:00,
2013-07-06 13:44:00,84.8,75.0,30.24,SSW,198,6.0,11.0,72,0.00,,,0.00,weatherlink.com 1.10,2013-07-06 17:44:00,
2013-07-06 13:59:00,84.8,75.0,30.24,South,191,6.0,11.0,72,0.00,,,0.00,weatherlink.com 1.10,2013-07-06 17:59:00,
2013-07-06 14:14:00,84.4,74.0,30.23,South,172,8.0,13.0,72,0.00,,,0.00,weatherlink.com 1.10,2013-07-06 18:14:00,
2013-07-06 14:29:00,84.3,74.0,30.23,SSE,163,6.0,12.0,70,0.00,,,0.00,weatherlink.com 1.10,2013-07-06 18:29:00,
2013-07-06 15:15:00,85.0,73.0,30.22,South,173,7.0,13.0,67,0.00,,,0.00,weatherlink.com 1.10,2013-07-06 19:15:00,
2013-07-06 15:30:00,85.3,74.0,30.21,SSE,156,8.0,12.0,69,0.00,,,0.00,weatherlink.com 1.10,2013-07-06 19:30:00,
2013-07-06 15:45:00,85.2,73.0,30.21,South,176,9.0,13.0,66,0.00,,,0.00,weatherlink.com 1.10,2013-07-06 19:45:00,
2013-07-06 16:15:00,85.1,71.0,30.19,South,177,9.0,13.0,63,0.00,,,0.00,weatherlink.com 1.10,2013-07-06 20:15:00,
2013-07-06 16:30:00,85.0,72.0,30.19,South,189,8.0,12.0,66,0.00,,,0.00,weatherlink.com 1.10,2013-07-06 20:30:00,
2013-07-06 16:45:00,84.4,73.0,30.19,South,184,8.0,12.0,68,0.00,,,0.00,weatherlink.com 1.10,2013-07-06 20:45:00,
2013-07-06 17:00:00,84.2,73.0,30.19,South,190,8.0,14.0,68,0.00,,,0.00,weatherlink.com 1.10,2013-07-06 21:00:00,
2013-07-06 17:15:00,84.1,73.0,30.19,SSW,194,11.0,13.0,69,0.00,,,0.00,weatherlink.com 1.10,2013-07-06 21:15:00,
2013-07-06 17:30:00,83.9,76.0,30.18,SW,214,10.0,14.0,76,0.00,,,0.00,weatherlink.com 1.10,2013-07-06 21:30:00,
2013-07-06 18:00:00,83.2,75.0,30.18,SSW,208,12.0,14.0,76,0.00,,,0.00,weatherlink.com 1.10,2013-07-06 22:00:00,
2013-07-06 18:30:00,82.9,75.0,30.18,South,191,10.0,16.0,77,0.00,,,0.00,weatherlink.com 1.10,2013-07-06 22:30:00,
2013-07-06 18:45:00,82.8,75.0,30.18,SSW,197,9.0,15.0,76,0.00,,,0.00,weatherlink.com 1.10,2013-07-06 22:45:00,
2013-07-06 19:00:00,82.7,75.0,30.18,SSW,198,10.0,15.0,77,0.00,,,0.00,weatherlink.com 1.10,2013-07-06 23:00:00,
2013-07-06 19:15:00,82.4,75.0,30.18,SW,221,10.0,14.0,79,0.00,,,0.00,weatherlink.com 1.10,2013-07-06 23:15:00,
2013-07-06 19:45:00,82.1,76.0,30.18,SSW,203,9.0,14.0,81,0.00,,,0.00,weatherlink.com 1.10,2013-07-06 23:45:00,
2013-07-06 20:15:00,81.6,76.0,30.18,SSW,195,9.0,11.0,83,0.00,,,0.00,weatherlink.com 1.10,2013-07-07 00:15:00,
2013-07-06 20:30:00,81.6,77.0,30.18,South,181,11.0,13.0,85,0.00,,,0.00,weatherlink.com 1.10,2013-07-07 00:30:00,
2013-07-06 21:00:00,81.1,76.0,30.19,SSW,201,10.0,12.0,85,0.00,,,0.00,weatherlink.com 1.10,2013-07-07 01:00:00,
2013-07-06 21:15:00,80.8,77.0,30.19,South,187,6.0,10.0,87,0.00,,,0.00,weatherlink.com 1.10,2013-07-07 01:15:00,
2013-07-06 21:45:00,80.6,76.0,30.20,SSW,198,6.0,11.0,86,0.00,,,0.00,weatherlink.com 1.10,2013-07-07 01:45:00,
2013-07-06 22:15:00,80.4,76.0,30.20,SSW,200,10.0,12.0,87,0.00,,,0.00,weatherlink.com 1.10,2013-07-07 02:15:00,
2013-07-06 22:30:00,80.4,77.0,30.20,SW,218,9.0,11.0,88,0.00,,,0.00,weatherlink.com 1.10,2013-07-07 02:30:00,
2013-07-06 23:00:00,79.9,75.0,30.20,SW,221,6.0,11.0,86,0.00,,,0.00,weatherlink.com 1.10,2013-07-07 03:00:00,
2013-07-06 23:15:00,79.8,76.0,30.21,SW,214,8.0,9.0,87,0.00,,,0.00,weatherlink.com 1.10,2013-07-07 03:15:00,